sensor_id;sensor_type;location;lat;lon;timestamp;P1;durP1;ratioP1;P2;durP2;ratioP2
63259;SDS011;49390;51.380;0.098;2022-11-09T00:01:26;17.80;;;3.95;;
63259;SDS011;49390;51.380;0.098;2022-11-09T00:03:56;21.60;;;3.65;;
63259;SDS011;49390;51.380;0.098;2022-11-09T00:06:26;20.67;;;3.67;;
63259;SDS011;49390;51.380;0.098;2022-11-09T00:08:55;22.35;;;4.05;;
63259;SDS011;49390;51.380;0.098;2022-11-09T00:11:33;20.13;;;3.80;;
63259;SDS011;49390;51.380;0.098;2022-11-09T00:14:04;18.77;;;3.72;;
63259;SDS011;49390;51.380;0.098;2022-11-09T00:16:32;13.98;;;3.88;;
63259;SDS011;49390;51.380;0.098;2022-11-09T00:19:03;24.40;;;3.58;;
63259;SDS011;49390;51.380;0.098;2022-11-09T00:21:31;17.83;;;5.72;;
63259;SDS011;49390;51.380;0.098;2022-11-09T00:23:59;25.60;;;3.70;;
63259;SDS011;49390;51.380;0.098;2022-11-09T00:26:28;18.13;;;4.45;;
63259;SDS011;49390;51.380;0.098;2022-11-09T00:28:55;24.55;;;5.18;;
63259;SDS011;49390;51.380;0.098;2022-11-09T00:31:24;20.05;;;4.60;;
63259;SDS011;49390;51.380;0.098;2022-11-09T00:33:52;22.30;;;3.95;;
63259;SDS011;49390;51.380;0.098;2022-11-09T00:36:24;15.05;;;3.67;;
63259;SDS011;49390;51.380;0.098;2022-11-09T00:38:54;16.45;;;4.35;;
63259;SDS011;49390;51.380;0.098;2022-11-09T00:41:24;20.27;;;3.85;;
63259;SDS011;49390;51.380;0.098;2022-11-09T00:43:55;25.15;;;4.18;;
63259;SDS011;49390;51.380;0.098;2022-11-09T00:46:25;19.38;;;3.40;;
63259;SDS011;49390;51.380;0.098;2022-11-09T00:48:56;19.10;;;3.60;;
63259;SDS011;49390;51.380;0.098;2022-11-09T00:51:24;19.90;;;3.97;;
63259;SDS011;49390;51.380;0.098;2022-11-09T00:53:54;20.73;;;3.97;;
63259;SDS011;49390;51.380;0.098;2022-11-09T00:56:25;18.90;;;3.38;;
63259;SDS011;49390;51.380;0.098;2022-11-09T00:58:54;20.42;;;3.65;;
63259;SDS011;49390;51.380;0.098;2022-11-09T01:01:22;20.13;;;4.13;;
63259;SDS011;49390;51.380;0.098;2022-11-09T01:03:51;15.30;;;3.00;;
63259;SDS011;49390;51.380;0.098;2022-11-09T01:06:20;22.70;;;3.60;;
63259;SDS011;49390;51.380;0.098;2022-11-09T01:08:53;16.23;;;3.42;;
63259;SDS011;49390;51.380;0.098;2022-11-09T01:11:22;18.67;;;3.60;;
63259;SDS011;49390;51.380;0.098;2022-11-09T01:13:53;20.75;;;3.10;;
63259;SDS011;49390;51.380;0.098;2022-11-09T01:16:22;20.98;;;3.42;;
63259;SDS011;49390;51.380;0.098;2022-11-09T01:18:52;15.80;;;4.10;;
63259;SDS011;49390;51.380;0.098;2022-11-09T01:21:24;16.80;;;3.15;;
63259;SDS011;49390;51.380;0.098;2022-11-09T01:23:54;16.33;;;3.45;;
63259;SDS011;49390;51.380;0.098;2022-11-09T01:26:25;16.05;;;2.90;;
63259;SDS011;49390;51.380;0.098;2022-11-09T01:28:54;13.07;;;2.78;;
63259;SDS011;49390;51.380;0.098;2022-11-09T01:31:22;17.15;;;3.63;;
63259;SDS011;49390;51.380;0.098;2022-11-09T01:33:50;20.10;;;3.00;;
63259;SDS011;49390;51.380;0.098;2022-11-09T01:36:19;18.00;;;3.58;;
63259;SDS011;49390;51.380;0.098;2022-11-09T01:38:49;14.93;;;2.78;;
63259;SDS011;49390;51.380;0.098;2022-11-09T01:41:19;16.67;;;3.40;;
63259;SDS011;49390;51.380;0.098;2022-11-09T01:44:04;13.93;;;2.92;;
63259;SDS011;49390;51.380;0.098;2022-11-09T01:49:23;17.80;;;3.38;;
63259;SDS011;49390;51.380;0.098;2022-11-09T01:52:03;19.02;;;3.35;;
63259;SDS011;49390;51.380;0.098;2022-11-09T01:54:54;15.93;;;2.95;;
63259;SDS011;49390;51.380;0.098;2022-11-09T01:57:43;16.50;;;4.53;;
63259;SDS011;49390;51.380;0.098;2022-11-09T02:00:16;25.45;;;4.43;;
63259;SDS011;49390;51.380;0.098;2022-11-09T02:03:07;17.58;;;3.83;;
63259;SDS011;49390;51.380;0.098;2022-11-09T02:08:08;14.90;;;3.88;;
63259;SDS011;49390;51.380;0.098;2022-11-09T02:13:29;17.98;;;3.00;;
63259;SDS011;49390;51.380;0.098;2022-11-09T02:16:05;19.75;;;3.75;;
63259;SDS011;49390;51.380;0.098;2022-11-09T02:21:15;12.93;;;2.90;;
63259;SDS011;49390;51.380;0.098;2022-11-09T02:23:43;15.40;;;3.35;;
63259;SDS011;49390;51.380;0.098;2022-11-09T02:26:13;13.32;;;3.20;;
63259;SDS011;49390;51.380;0.098;2022-11-09T02:29:16;14.15;;;3.20;;
63259;SDS011;49390;51.380;0.098;2022-11-09T02:31:51;25.52;;;3.50;;
63259;SDS011;49390;51.380;0.098;2022-11-09T02:34:41;17.67;;;4.47;;
63259;SDS011;49390;51.380;0.098;2022-11-09T02:37:09;13.13;;;2.58;;
63259;SDS011;49390;51.380;0.098;2022-11-09T02:39:37;15.10;;;2.67;;
63259;SDS011;49390;51.380;0.098;2022-11-09T02:42:15;11.70;;;2.55;;
63259;SDS011;49390;51.380;0.098;2022-11-09T02:44:51;19.52;;;2.95;;
63259;SDS011;49390;51.380;0.098;2022-11-09T02:47:26;21.40;;;3.60;;
63259;SDS011;49390;51.380;0.098;2022-11-09T02:49:54;17.58;;;2.58;;
63259;SDS011;49390;51.380;0.098;2022-11-09T02:52:25;17.00;;;2.92;;
63259;SDS011;49390;51.380;0.098;2022-11-09T02:54:55;13.82;;;2.85;;
63259;SDS011;49390;51.380;0.098;2022-11-09T02:57:24;18.65;;;3.28;;
63259;SDS011;49390;51.380;0.098;2022-11-09T02:59:52;15.15;;;3.03;;
63259;SDS011;49390;51.380;0.098;2022-11-09T03:02:21;16.38;;;2.33;;
63259;SDS011;49390;51.380;0.098;2022-11-09T03:04:51;10.63;;;2.30;;
63259;SDS011;49390;51.380;0.098;2022-11-09T03:07:20;14.13;;;2.90;;
63259;SDS011;49390;51.380;0.098;2022-11-09T03:09:51;9.38;;;3.05;;
63259;SDS011;49390;51.380;0.098;2022-11-09T03:12:22;10.85;;;2.38;;
63259;SDS011;49390;51.380;0.098;2022-11-09T03:15:04;13.18;;;3.35;;
63259;SDS011;49390;51.380;0.098;2022-11-09T03:17:35;12.63;;;2.58;;
63259;SDS011;49390;51.380;0.098;2022-11-09T03:20:03;14.77;;;2.53;;
63259;SDS011;49390;51.380;0.098;2022-11-09T03:22:32;12.35;;;3.20;;
63259;SDS011;49390;51.380;0.098;2022-11-09T03:25:01;13.48;;;3.10;;
63259;SDS011;49390;51.380;0.098;2022-11-09T03:27:30;12.98;;;3.35;;
63259;SDS011;49390;51.380;0.098;2022-11-09T03:29:58;13.45;;;3.33;;
63259;SDS011;49390;51.380;0.098;2022-11-09T03:32:26;8.38;;;2.67;;
63259;SDS011;49390;51.380;0.098;2022-11-09T03:34:55;14.57;;;3.65;;
63259;SDS011;49390;51.380;0.098;2022-11-09T03:37:23;11.20;;;2.45;;
63259;SDS011;49390;51.380;0.098;2022-11-09T03:39:52;10.25;;;2.60;;
63259;SDS011;49390;51.380;0.098;2022-11-09T03:42:20;10.90;;;3.28;;
63259;SDS011;49390;51.380;0.098;2022-11-09T03:44:49;11.05;;;1.98;;
63259;SDS011;49390;51.380;0.098;2022-11-09T03:47:18;9.43;;;2.50;;
63259;SDS011;49390;51.380;0.098;2022-11-09T03:49:46;12.00;;;2.45;;
63259;SDS011;49390;51.380;0.098;2022-11-09T03:52:14;10.77;;;2.25;;
63259;SDS011;49390;51.380;0.098;2022-11-09T03:54:43;14.38;;;2.40;;
63259;SDS011;49390;51.380;0.098;2022-11-09T03:57:10;11.38;;;2.60;;
63259;SDS011;49390;51.380;0.098;2022-11-09T03:59:39;8.52;;;2.50;;
63259;SDS011;49390;51.380;0.098;2022-11-09T04:02:07;10.98;;;2.30;;
63259;SDS011;49390;51.380;0.098;2022-11-09T04:04:35;13.50;;;2.42;;
63259;SDS011;49390;51.380;0.098;2022-11-09T04:07:03;12.57;;;2.17;;
63259;SDS011;49390;51.380;0.098;2022-11-09T04:09:33;6.88;;;2.00;;
63259;SDS011;49390;51.380;0.098;2022-11-09T04:12:04;8.88;;;2.47;;
63259;SDS011;49390;51.380;0.098;2022-11-09T04:14:32;9.38;;;1.98;;
63259;SDS011;49390;51.380;0.098;2022-11-09T04:17:00;10.90;;;2.47;;
63259;SDS011;49390;51.380;0.098;2022-11-09T04:19:30;14.85;;;3.10;;
63259;SDS011;49390;51.380;0.098;2022-11-09T04:22:00;11.55;;;2.25;;
63259;SDS011;49390;51.380;0.098;2022-11-09T04:24:28;8.45;;;2.33;;
63259;SDS011;49390;51.380;0.098;2022-11-09T04:26:56;8.30;;;2.10;;
63259;SDS011;49390;51.380;0.098;2022-11-09T04:29:27;8.45;;;2.13;;
63259;SDS011;49390;51.380;0.098;2022-11-09T04:31:55;12.20;;;2.80;;
63259;SDS011;49390;51.380;0.098;2022-11-09T04:34:24;23.25;;;3.83;;
63259;SDS011;49390;51.380;0.098;2022-11-09T04:36:52;8.80;;;2.22;;
63259;SDS011;49390;51.380;0.098;2022-11-09T04:39:22;9.05;;;1.98;;
63259;SDS011;49390;51.380;0.098;2022-11-09T04:41:51;9.32;;;2.00;;
63259;SDS011;49390;51.380;0.098;2022-11-09T04:44:22;13.45;;;2.70;;
63259;SDS011;49390;51.380;0.098;2022-11-09T04:46:51;5.88;;;1.58;;
63259;SDS011;49390;51.380;0.098;2022-11-09T04:49:19;8.75;;;1.95;;
63259;SDS011;49390;51.380;0.098;2022-11-09T04:51:47;8.50;;;2.25;;
63259;SDS011;49390;51.380;0.098;2022-11-09T04:54:17;13.50;;;2.15;;
63259;SDS011;49390;51.380;0.098;2022-11-09T04:56:45;9.65;;;1.88;;
63259;SDS011;49390;51.380;0.098;2022-11-09T04:59:15;10.85;;;2.50;;
63259;SDS011;49390;51.380;0.098;2022-11-09T05:01:43;13.77;;;3.45;;
63259;SDS011;49390;51.380;0.098;2022-11-09T05:04:11;12.70;;;1.92;;
63259;SDS011;49390;51.380;0.098;2022-11-09T05:06:39;9.63;;;2.05;;
63259;SDS011;49390;51.380;0.098;2022-11-09T05:09:08;13.30;;;2.45;;
63259;SDS011;49390;51.380;0.098;2022-11-09T05:11:36;7.97;;;2.33;;
63259;SDS011;49390;51.380;0.098;2022-11-09T05:14:05;13.40;;;2.35;;
63259;SDS011;49390;51.380;0.098;2022-11-09T05:16:33;8.18;;;2.10;;
63259;SDS011;49390;51.380;0.098;2022-11-09T05:19:01;5.13;;;1.63;;
63259;SDS011;49390;51.380;0.098;2022-11-09T05:21:30;6.78;;;1.73;;
63259;SDS011;49390;51.380;0.098;2022-11-09T05:23:58;6.82;;;1.50;;
63259;SDS011;49390;51.380;0.098;2022-11-09T05:26:30;10.13;;;2.17;;
63259;SDS011;49390;51.380;0.098;2022-11-09T05:29:04;11.50;;;2.75;;
63259;SDS011;49390;51.380;0.098;2022-11-09T05:34:03;7.70;;;1.67;;
63259;SDS011;49390;51.380;0.098;2022-11-09T05:36:33;7.68;;;1.90;;
63259;SDS011;49390;51.380;0.098;2022-11-09T05:39:01;9.55;;;2.30;;
63259;SDS011;49390;51.380;0.098;2022-11-09T05:41:29;8.50;;;1.90;;
63259;SDS011;49390;51.380;0.098;2022-11-09T05:43:58;14.90;;;2.22;;
63259;SDS011;49390;51.380;0.098;2022-11-09T05:46:28;7.53;;;2.67;;
63259;SDS011;49390;51.380;0.098;2022-11-09T05:48:57;4.65;;;1.85;;
63259;SDS011;49390;51.380;0.098;2022-11-09T05:51:26;7.95;;;1.92;;
63259;SDS011;49390;51.380;0.098;2022-11-09T05:53:54;8.20;;;2.20;;
63259;SDS011;49390;51.380;0.098;2022-11-09T05:56:23;10.32;;;1.88;;
63259;SDS011;49390;51.380;0.098;2022-11-09T05:58:51;7.93;;;1.65;;
63259;SDS011;49390;51.380;0.098;2022-11-09T06:01:18;6.05;;;1.60;;
63259;SDS011;49390;51.380;0.098;2022-11-09T06:03:46;10.35;;;1.88;;
63259;SDS011;49390;51.380;0.098;2022-11-09T06:06:15;5.53;;;1.83;;
63259;SDS011;49390;51.380;0.098;2022-11-09T06:08:44;6.20;;;1.50;;
63259;SDS011;49390;51.380;0.098;2022-11-09T06:11:12;4.38;;;1.48;;
63259;SDS011;49390;51.380;0.098;2022-11-09T06:13:52;6.13;;;1.25;;
63259;SDS011;49390;51.380;0.098;2022-11-09T06:16:20;5.60;;;1.90;;
63259;SDS011;49390;51.380;0.098;2022-11-09T06:18:49;5.50;;;1.70;;
63259;SDS011;49390;51.380;0.098;2022-11-09T06:21:17;4.53;;;1.40;;
63259;SDS011;49390;51.380;0.098;2022-11-09T06:23:46;5.45;;;2.15;;
63259;SDS011;49390;51.380;0.098;2022-11-09T06:26:14;4.43;;;1.33;;
63259;SDS011;49390;51.380;0.098;2022-11-09T06:28:42;5.30;;;1.58;;
63259;SDS011;49390;51.380;0.098;2022-11-09T06:31:12;3.72;;;1.50;;
63259;SDS011;49390;51.380;0.098;2022-11-09T06:33:42;6.07;;;1.50;;
63259;SDS011;49390;51.380;0.098;2022-11-09T06:36:10;5.07;;;1.92;;
63259;SDS011;49390;51.380;0.098;2022-11-09T06:38:39;7.15;;;1.85;;
63259;SDS011;49390;51.380;0.098;2022-11-09T06:41:08;8.25;;;1.83;;
63259;SDS011;49390;51.380;0.098;2022-11-09T06:43:38;5.53;;;1.40;;
63259;SDS011;49390;51.380;0.098;2022-11-09T06:46:06;5.93;;;1.63;;
63259;SDS011;49390;51.380;0.098;2022-11-09T06:48:37;6.90;;;1.30;;
63259;SDS011;49390;51.380;0.098;2022-11-09T06:51:06;8.23;;;1.48;;
63259;SDS011;49390;51.380;0.098;2022-11-09T06:53:34;5.55;;;1.50;;
63259;SDS011;49390;51.380;0.098;2022-11-09T06:56:04;4.60;;;1.38;;
63259;SDS011;49390;51.380;0.098;2022-11-09T06:58:33;4.38;;;1.50;;
63259;SDS011;49390;51.380;0.098;2022-11-09T07:01:06;3.03;;;1.13;;
63259;SDS011;49390;51.380;0.098;2022-11-09T07:03:39;8.38;;;1.70;;
63259;SDS011;49390;51.380;0.098;2022-11-09T07:06:08;11.82;;;2.03;;
63259;SDS011;49390;51.380;0.098;2022-11-09T07:08:38;3.65;;;1.50;;
63259;SDS011;49390;51.380;0.098;2022-11-09T07:11:11;6.10;;;1.60;;
63259;SDS011;49390;51.380;0.098;2022-11-09T07:13:42;5.38;;;1.58;;
63259;SDS011;49390;51.380;0.098;2022-11-09T07:16:10;6.85;;;2.08;;
63259;SDS011;49390;51.380;0.098;2022-11-09T07:18:39;7.72;;;1.63;;
63259;SDS011;49390;51.380;0.098;2022-11-09T07:21:07;4.78;;;1.45;;
63259;SDS011;49390;51.380;0.098;2022-11-09T07:23:41;5.28;;;1.50;;
63259;SDS011;49390;51.380;0.098;2022-11-09T07:26:09;9.02;;;1.80;;
63259;SDS011;49390;51.380;0.098;2022-11-09T07:28:38;8.82;;;1.80;;
63259;SDS011;49390;51.380;0.098;2022-11-09T07:31:06;5.15;;;1.30;;
63259;SDS011;49390;51.380;0.098;2022-11-09T07:33:34;5.93;;;1.60;;
63259;SDS011;49390;51.380;0.098;2022-11-09T07:36:03;5.18;;;1.80;;
63259;SDS011;49390;51.380;0.098;2022-11-09T07:38:32;4.55;;;1.55;;
63259;SDS011;49390;51.380;0.098;2022-11-09T07:41:00;5.28;;;1.38;;
63259;SDS011;49390;51.380;0.098;2022-11-09T07:43:29;10.48;;;2.38;;
63259;SDS011;49390;51.380;0.098;2022-11-09T07:45:58;5.97;;;1.58;;
63259;SDS011;49390;51.380;0.098;2022-11-09T07:48:30;4.05;;;1.40;;
63259;SDS011;49390;51.380;0.098;2022-11-09T07:50:59;6.53;;;1.50;;
63259;SDS011;49390;51.380;0.098;2022-11-09T07:53:29;8.52;;;2.05;;
63259;SDS011;49390;51.380;0.098;2022-11-09T07:55:58;7.20;;;1.85;;
63259;SDS011;49390;51.380;0.098;2022-11-09T07:58:27;6.57;;;1.90;;
63259;SDS011;49390;51.380;0.098;2022-11-09T08:00:56;7.53;;;1.50;;
63259;SDS011;49390;51.380;0.098;2022-11-09T08:03:24;8.93;;;1.70;;
63259;SDS011;49390;51.380;0.098;2022-11-09T08:05:55;9.48;;;2.17;;
63259;SDS011;49390;51.380;0.098;2022-11-09T08:08:23;6.78;;;2.00;;
63259;SDS011;49390;51.380;0.098;2022-11-09T08:10:51;5.28;;;1.65;;
63259;SDS011;49390;51.380;0.098;2022-11-09T08:13:20;8.05;;;2.08;;
63259;SDS011;49390;51.380;0.098;2022-11-09T08:15:49;5.45;;;1.88;;
63259;SDS011;49390;51.380;0.098;2022-11-09T08:18:18;6.70;;;1.83;;
63259;SDS011;49390;51.380;0.098;2022-11-09T08:20:48;9.80;;;2.30;;
63259;SDS011;49390;51.380;0.098;2022-11-09T08:23:17;9.82;;;3.13;;
63259;SDS011;49390;51.380;0.098;2022-11-09T08:25:50;5.35;;;1.75;;
63259;SDS011;49390;51.380;0.098;2022-11-09T08:28:18;7.15;;;1.90;;
63259;SDS011;49390;51.380;0.098;2022-11-09T08:30:55;4.65;;;1.80;;
63259;SDS011;49390;51.380;0.098;2022-11-09T08:33:28;6.70;;;1.77;;
63259;SDS011;49390;51.380;0.098;2022-11-09T08:35:57;4.10;;;1.58;;
63259;SDS011;49390;51.380;0.098;2022-11-09T08:38:26;5.53;;;1.75;;
63259;SDS011;49390;51.380;0.098;2022-11-09T08:40:57;5.13;;;1.50;;
63259;SDS011;49390;51.380;0.098;2022-11-09T08:43:26;4.70;;;1.52;;
63259;SDS011;49390;51.380;0.098;2022-11-09T08:45:54;3.75;;;1.70;;
63259;SDS011;49390;51.380;0.098;2022-11-09T08:48:22;8.55;;;1.60;;
63259;SDS011;49390;51.380;0.098;2022-11-09T08:50:51;6.30;;;1.50;;
63259;SDS011;49390;51.380;0.098;2022-11-09T08:53:23;6.30;;;1.50;;
63259;SDS011;49390;51.380;0.098;2022-11-09T08:55:53;3.40;;;1.45;;
63259;SDS011;49390;51.380;0.098;2022-11-09T08:58:21;6.22;;;1.50;;
63259;SDS011;49390;51.380;0.098;2022-11-09T09:00:50;6.18;;;1.33;;
63259;SDS011;49390;51.380;0.098;2022-11-09T09:03:19;4.75;;;1.50;;
63259;SDS011;49390;51.380;0.098;2022-11-09T09:05:46;7.72;;;1.77;;
63259;SDS011;49390;51.380;0.098;2022-11-09T09:08:15;3.42;;;1.30;;
63259;SDS011;49390;51.380;0.098;2022-11-09T09:10:48;5.75;;;1.52;;
63259;SDS011;49390;51.380;0.098;2022-11-09T09:13:17;4.88;;;1.38;;
63259;SDS011;49390;51.380;0.098;2022-11-09T09:15:49;5.68;;;2.58;;
63259;SDS011;49390;51.380;0.098;2022-11-09T09:18:17;6.30;;;1.50;;
63259;SDS011;49390;51.380;0.098;2022-11-09T09:20:46;4.93;;;1.45;;
63259;SDS011;49390;51.380;0.098;2022-11-09T09:23:15;7.63;;;1.58;;
63259;SDS011;49390;51.380;0.098;2022-11-09T09:25:44;3.25;;;1.38;;
63259;SDS011;49390;51.380;0.098;2022-11-09T09:28:12;5.05;;;1.95;;
63259;SDS011;49390;51.380;0.098;2022-11-09T09:30:41;3.45;;;1.35;;
63259;SDS011;49390;51.380;0.098;2022-11-09T09:33:09;2.97;;;1.00;;
63259;SDS011;49390;51.380;0.098;2022-11-09T09:35:38;5.03;;;1.23;;
63259;SDS011;49390;51.380;0.098;2022-11-09T09:38:06;6.45;;;1.50;;
63259;SDS011;49390;51.380;0.098;2022-11-09T09:40:37;6.45;;;1.50;;
63259;SDS011;49390;51.380;0.098;2022-11-09T09:43:24;1.42;;;1.02;;
63259;SDS011;49390;51.380;0.098;2022-11-09T09:46:01;3.60;;;1.90;;
63259;SDS011;49390;51.380;0.098;2022-11-09T09:48:37;3.72;;;1.30;;
63259;SDS011;49390;51.380;0.098;2022-11-09T09:51:17;4.07;;;1.48;;
63259;SDS011;49390;51.380;0.098;2022-11-09T09:54:04;9.32;;;1.73;;
63259;SDS011;49390;51.380;0.098;2022-11-09T09:56:42;6.82;;;1.85;;
63259;SDS011;49390;51.380;0.098;2022-11-09T09:59:55;3.75;;;1.45;;
63259;SDS011;49390;51.380;0.098;2022-11-09T10:02:26;7.72;;;1.42;;
63259;SDS011;49390;51.380;0.098;2022-11-09T10:04:58;5.70;;;1.60;;
63259;SDS011;49390;51.380;0.098;2022-11-09T10:07:38;6.18;;;1.55;;
63259;SDS011;49390;51.380;0.098;2022-11-09T10:12:50;5.85;;;1.70;;
63259;SDS011;49390;51.380;0.098;2022-11-09T10:26:46;2.72;;;1.45;;
63259;SDS011;49390;51.380;0.098;2022-11-09T10:29:24;4.28;;;1.45;;
63259;SDS011;49390;51.380;0.098;2022-11-09T10:31:54;5.60;;;1.60;;
63259;SDS011;49390;51.380;0.098;2022-11-09T10:34:39;5.65;;;1.90;;
63259;SDS011;49390;51.380;0.098;2022-11-09T10:37:43;3.88;;;1.50;;
63259;SDS011;49390;51.380;0.098;2022-11-09T10:40:29;9.52;;;2.13;;
63259;SDS011;49390;51.380;0.098;2022-11-09T10:43:23;6.15;;;1.60;;
63259;SDS011;49390;51.380;0.098;2022-11-09T10:46:09;7.00;;;1.98;;
63259;SDS011;49390;51.380;0.098;2022-11-09T10:49:07;5.00;;;1.70;;
63259;SDS011;49390;51.380;0.098;2022-11-09T10:52:05;6.18;;;1.48;;
63259;SDS011;49390;51.380;0.098;2022-11-09T10:58:45;4.93;;;1.75;;
63259;SDS011;49390;51.380;0.098;2022-11-09T11:01:25;6.85;;;2.20;;
63259;SDS011;49390;51.380;0.098;2022-11-09T11:04:23;9.18;;;2.10;;
63259;SDS011;49390;51.380;0.098;2022-11-09T11:07:14;5.38;;;2.00;;
63259;SDS011;49390;51.380;0.098;2022-11-09T11:15:49;6.82;;;2.35;;
63259;SDS011;49390;51.380;0.098;2022-11-09T11:18:37;4.88;;;1.90;;
63259;SDS011;49390;51.380;0.098;2022-11-09T11:21:30;3.50;;;1.40;;
63259;SDS011;49390;51.380;0.098;2022-11-09T11:24:19;7.55;;;1.40;;
63259;SDS011;49390;51.380;0.098;2022-11-09T11:27:53;5.97;;;1.80;;
63259;SDS011;49390;51.380;0.098;2022-11-09T11:30:31;7.15;;;1.80;;
63259;SDS011;49390;51.380;0.098;2022-11-09T11:33:21;6.70;;;2.05;;
63259;SDS011;49390;51.380;0.098;2022-11-09T11:36:17;4.55;;;1.63;;
63259;SDS011;49390;51.380;0.098;2022-11-09T11:42:19;10.98;;;2.30;;
63259;SDS011;49390;51.380;0.098;2022-11-09T11:54:54;7.90;;;2.10;;
63259;SDS011;49390;51.380;0.098;2022-11-09T12:00:47;6.07;;;1.60;;
63259;SDS011;49390;51.380;0.098;2022-11-09T12:03:49;9.18;;;1.70;;
63259;SDS011;49390;51.380;0.098;2022-11-09T12:06:53;9.00;;;1.75;;
63259;SDS011;49390;51.380;0.098;2022-11-09T12:10:24;6.65;;;1.60;;
63259;SDS011;49390;51.380;0.098;2022-11-09T12:16:27;6.47;;;1.58;;
63259;SDS011;49390;51.380;0.098;2022-11-09T12:19:31;7.75;;;2.15;;
63259;SDS011;49390;51.380;0.098;2022-11-09T12:38:30;10.18;;;2.45;;
63259;SDS011;49390;51.380;0.098;2022-11-09T12:41:22;10.63;;;2.35;;
63259;SDS011;49390;51.380;0.098;2022-11-09T12:47:07;7.45;;;2.45;;
63259;SDS011;49390;51.380;0.098;2022-11-09T12:50:01;8.70;;;2.00;;
63259;SDS011;49390;51.380;0.098;2022-11-09T12:52:50;7.88;;;1.80;;
63259;SDS011;49390;51.380;0.098;2022-11-09T12:58:40;8.10;;;1.80;;
63259;SDS011;49390;51.380;0.098;2022-11-09T13:04:19;9.73;;;1.80;;
63259;SDS011;49390;51.380;0.098;2022-11-09T13:10:31;7.15;;;1.77;;
63259;SDS011;49390;51.380;0.098;2022-11-09T13:13:20;9.43;;;1.95;;
63259;SDS011;49390;51.380;0.098;2022-11-09T13:19:05;9.18;;;2.45;;
63259;SDS011;49390;51.380;0.098;2022-11-09T13:21:53;8.80;;;2.08;;
63259;SDS011;49390;51.380;0.098;2022-11-09T13:24:50;9.55;;;2.60;;
63259;SDS011;49390;51.380;0.098;2022-11-09T13:27:47;6.40;;;1.70;;
63259;SDS011;49390;51.380;0.098;2022-11-09T13:30:38;8.30;;;2.00;;
63259;SDS011;49390;51.380;0.098;2022-11-09T13:33:33;10.45;;;1.90;;
63259;SDS011;49390;51.380;0.098;2022-11-09T13:36:20;5.15;;;1.88;;
63259;SDS011;49390;51.380;0.098;2022-11-09T13:39:27;8.07;;;2.38;;
63259;SDS011;49390;51.380;0.098;2022-11-09T13:42:30;11.25;;;2.38;;
63259;SDS011;49390;51.380;0.098;2022-11-09T13:45:26;7.82;;;2.00;;
63259;SDS011;49390;51.380;0.098;2022-11-09T13:48:46;7.10;;;1.92;;
63259;SDS011;49390;51.380;0.098;2022-11-09T13:51:45;5.53;;;1.92;;
63259;SDS011;49390;51.380;0.098;2022-11-09T13:54:35;7.45;;;1.98;;
63259;SDS011;49390;51.380;0.098;2022-11-09T13:57:27;10.55;;;2.10;;
63259;SDS011;49390;51.380;0.098;2022-11-09T14:00:17;12.20;;;2.20;;
63259;SDS011;49390;51.380;0.098;2022-11-09T14:03:19;10.98;;;2.50;;
63259;SDS011;49390;51.380;0.098;2022-11-09T14:06:14;11.68;;;2.58;;
63259;SDS011;49390;51.380;0.098;2022-11-09T14:09:00;10.30;;;3.13;;
63259;SDS011;49390;51.380;0.098;2022-11-09T14:12:11;8.45;;;2.58;;
63259;SDS011;49390;51.380;0.098;2022-11-09T14:15:16;8.85;;;2.10;;
63259;SDS011;49390;51.380;0.098;2022-11-09T14:21:22;13.68;;;2.60;;
63259;SDS011;49390;51.380;0.098;2022-11-09T14:24:30;10.13;;;2.72;;
63259;SDS011;49390;51.380;0.098;2022-11-09T14:27:19;7.30;;;2.10;;
63259;SDS011;49390;51.380;0.098;2022-11-09T14:30:20;8.85;;;2.58;;
63259;SDS011;49390;51.380;0.098;2022-11-09T14:41:03;5.28;;;2.28;;
63259;SDS011;49390;51.380;0.098;2022-11-09T14:44:19;7.78;;;2.05;;
63259;SDS011;49390;51.380;0.098;2022-11-09T14:47:32;6.85;;;2.75;;
63259;SDS011;49390;51.380;0.098;2022-11-09T14:50:29;7.32;;;2.03;;
63259;SDS011;49390;51.380;0.098;2022-11-09T14:54:34;6.55;;;1.80;;
63259;SDS011;49390;51.380;0.098;2022-11-09T14:57:57;6.22;;;1.75;;
63259;SDS011;49390;51.380;0.098;2022-11-09T15:04:19;10.20;;;3.25;;
63259;SDS011;49390;51.380;0.098;2022-11-09T15:07:19;14.02;;;3.15;;
63259;SDS011;49390;51.380;0.098;2022-11-09T15:10:21;10.55;;;2.42;;
63259;SDS011;49390;51.380;0.098;2022-11-09T15:13:16;9.63;;;2.15;;
63259;SDS011;49390;51.380;0.098;2022-11-09T15:16:59;13.10;;;2.97;;
63259;SDS011;49390;51.380;0.098;2022-11-09T15:20:30;9.68;;;2.38;;
63259;SDS011;49390;51.380;0.098;2022-11-09T15:23:48;8.15;;;2.60;;
63259;SDS011;49390;51.380;0.098;2022-11-09T15:26:52;9.25;;;3.38;;
63259;SDS011;49390;51.380;0.098;2022-11-09T15:29:54;6.82;;;2.30;;
63259;SDS011;49390;51.380;0.098;2022-11-09T15:33:16;8.27;;;3.22;;
63259;SDS011;49390;51.380;0.098;2022-11-09T15:39:13;9.40;;;2.78;;
63259;SDS011;49390;51.380;0.098;2022-11-09T15:42:10;17.52;;;3.00;;
63259;SDS011;49390;51.380;0.098;2022-11-09T15:45:03;11.40;;;2.90;;
63259;SDS011;49390;51.380;0.098;2022-11-09T15:47:53;8.32;;;2.47;;
63259;SDS011;49390;51.380;0.098;2022-11-09T15:51:06;7.43;;;2.37;;
63259;SDS011;49390;51.380;0.098;2022-11-09T15:54:04;9.00;;;2.70;;
63259;SDS011;49390;51.380;0.098;2022-11-09T15:57:13;12.35;;;2.65;;
63259;SDS011;49390;51.380;0.098;2022-11-09T16:00:25;7.20;;;2.40;;
63259;SDS011;49390;51.380;0.098;2022-11-09T16:03:23;7.60;;;2.20;;
63259;SDS011;49390;51.380;0.098;2022-11-09T16:06:17;9.10;;;2.22;;
63259;SDS011;49390;51.380;0.098;2022-11-09T16:09:20;13.80;;;2.78;;
63259;SDS011;49390;51.380;0.098;2022-11-09T16:12:13;8.35;;;2.30;;
63259;SDS011;49390;51.380;0.098;2022-11-09T16:15:11;8.52;;;2.50;;
63259;SDS011;49390;51.380;0.098;2022-11-09T16:21:41;10.60;;;2.30;;
63259;SDS011;49390;51.380;0.098;2022-11-09T16:24:36;7.50;;;2.67;;
63259;SDS011;49390;51.380;0.098;2022-11-09T16:27:30;12.35;;;2.42;;
63259;SDS011;49390;51.380;0.098;2022-11-09T16:30:36;11.13;;;2.75;;
63259;SDS011;49390;51.380;0.098;2022-11-09T16:33:32;10.82;;;3.58;;
63259;SDS011;49390;51.380;0.098;2022-11-09T16:36:23;17.05;;;3.53;;
63259;SDS011;49390;51.380;0.098;2022-11-09T16:39:35;9.20;;;3.35;;
63259;SDS011;49390;51.380;0.098;2022-11-09T16:42:22;12.43;;;3.92;;
63259;SDS011;49390;51.380;0.098;2022-11-09T16:45:12;10.77;;;3.08;;
63259;SDS011;49390;51.380;0.098;2022-11-09T16:48:01;9.70;;;3.05;;
63259;SDS011;49390;51.380;0.098;2022-11-09T16:50:49;11.13;;;2.58;;
63259;SDS011;49390;51.380;0.098;2022-11-09T16:53:38;7.10;;;3.50;;
63259;SDS011;49390;51.380;0.098;2022-11-09T16:56:25;14.50;;;3.70;;
63259;SDS011;49390;51.380;0.098;2022-11-09T16:59:12;10.90;;;2.72;;
63259;SDS011;49390;51.380;0.098;2022-11-09T17:02:00;8.63;;;2.60;;
63259;SDS011;49390;51.380;0.098;2022-11-09T17:04:48;10.25;;;3.58;;
63259;SDS011;49390;51.380;0.098;2022-11-09T17:07:35;11.20;;;3.08;;
63259;SDS011;49390;51.380;0.098;2022-11-09T17:10:27;8.45;;;2.78;;
63259;SDS011;49390;51.380;0.098;2022-11-09T17:13:14;6.20;;;2.42;;
63259;SDS011;49390;51.380;0.098;2022-11-09T17:16:05;5.57;;;2.60;;
63259;SDS011;49390;51.380;0.098;2022-11-09T17:18:54;9.25;;;2.70;;
63259;SDS011;49390;51.380;0.098;2022-11-09T17:21:42;11.07;;;2.50;;
63259;SDS011;49390;51.380;0.098;2022-11-09T17:24:30;8.45;;;3.08;;
63259;SDS011;49390;51.380;0.098;2022-11-09T17:27:17;10.23;;;2.75;;
63259;SDS011;49390;51.380;0.098;2022-11-09T17:30:05;9.02;;;2.88;;
63259;SDS011;49390;51.380;0.098;2022-11-09T17:32:52;9.15;;;2.50;;
63259;SDS011;49390;51.380;0.098;2022-11-09T17:35:39;9.65;;;2.40;;
63259;SDS011;49390;51.380;0.098;2022-11-09T17:38:27;10.52;;;2.97;;
63259;SDS011;49390;51.380;0.098;2022-11-09T17:41:16;7.05;;;2.40;;
63259;SDS011;49390;51.380;0.098;2022-11-09T17:44:04;7.03;;;2.53;;